sensor_id;sensor_type;location;lat;lon;timestamp;pressure;altitude;pressure_sealevel;temperature;humidity
35307;BME280;21420;52.196;21.416;2023-12-14T00:01:28;99196.80;;;3.30;79.00
35307;BME280;21420;52.196;21.416;2023-12-14T00:03:55;99198.98;;;3.27;79.02
35307;BME280;21420;52.196;21.416;2023-12-14T00:06:21;99201.15;;;3.25;78.99
35307;BME280;21420;52.196;21.416;2023-12-14T00:08:47;99204.48;;;3.24;78.95
35307;BME280;21420;52.196;21.416;2023-12-14T00:11:13;99204.55;;;3.22;78.93
35307;BME280;21420;52.196;21.416;2023-12-14T00:13:39;99206.40;;;3.22;78.90
35307;BME280;21420;52.196;21.416;2023-12-14T00:16:06;99208.23;;;3.20;78.88
35307;BME280;21420;52.196;21.416;2023-12-14T00:18:33;99208.65;;;3.19;78.90
35307;BME280;21420;52.196;21.416;2023-12-14T00:20:59;99208.36;;;3.18;78.92
35307;BME280;21420;52.196;21.416;2023-12-14T00:23:26;99216.70;;;3.17;78.95
35307;BME280;21420;52.196;21.416;2023-12-14T00:25:52;99218.73;;;3.18;78.96
35307;BME280;21420;52.196;21.416;2023-12-14T00:28:20;99220.64;;;3.16;78.92
35307;BME280;21420;52.196;21.416;2023-12-14T00:30:46;99221.66;;;3.14;78.94
35307;BME280;21420;52.196;21.416;2023-12-14T00:33:12;99225.26;;;3.13;78.95
35307;BME280;21420;52.196;21.416;2023-12-14T00:35:38;99228.69;;;3.12;78.92
35307;BME280;21420;52.196;21.416;2023-12-14T00:38:04;99229.15;;;3.11;78.85
35307;BME280;21420;52.196;21.416;2023-12-14T00:40:30;99233.33;;;3.09;78.90
35307;BME280;21420;52.196;21.416;2023-12-14T00:42:56;99237.77;;;3.08;78.90
35307;BME280;21420;52.196;21.416;2023-12-14T00:45:22;99237.95;;;3.07;78.92
35307;BME280;21420;52.196;21.416;2023-12-14T00:47:48;99238.95;;;3.07;78.91
35307;BME280;21420;52.196;21.416;2023-12-14T00:50:14;99240.71;;;3.04;78.94
35307;BME280;21420;52.196;21.416;2023-12-14T00:52:41;99244.50;;;3.00;78.84
35307;BME280;21420;52.196;21.416;2023-12-14T00:55:07;99248.23;;;2.98;78.85
35307;BME280;21420;52.196;21.416;2023-12-14T00:57:33;99251.70;;;2.96;78.79
35307;BME280;21420;52.196;21.416;2023-12-14T00:59:59;99255.92;;;2.94;78.80
35307;BME280;21420;52.196;21.416;2023-12-14T01:02:25;99255.85;;;2.92;78.88
35307;BME280;21420;52.196;21.416;2023-12-14T01:04:51;99258.91;;;2.89;78.86
35307;BME280;21420;52.196;21.416;2023-12-14T01:07:17;99260.31;;;2.87;78.83
35307;BME280;21420;52.196;21.416;2023-12-14T01:09:43;99267.18;;;2.85;78.93
35307;BME280;21420;52.196;21.416;2023-12-14T01:12:10;99271.11;;;2.84;78.89
35307;BME280;21420;52.196;21.416;2023-12-14T01:14:36;99271.23;;;2.83;78.91
35307;BME280;21420;52.196;21.416;2023-12-14T01:17:04;99268.31;;;2.82;78.92
35307;BME280;21420;52.196;21.416;2023-12-14T01:19:30;99268.39;;;2.82;78.92
35307;BME280;21420;52.196;21.416;2023-12-14T01:21:56;99264.66;;;2.84;78.96
35307;BME280;21420;52.196;21.416;2023-12-14T01:24:22;99264.64;;;2.87;79.05
35307;BME280;21420;52.196;21.416;2023-12-14T01:26:48;99264.62;;;2.88;79.03
35307;BME280;21420;52.196;21.416;2023-12-14T01:29:14;99261.09;;;2.88;79.06
35307;BME280;21420;52.196;21.416;2023-12-14T01:31:40;99256.73;;;2.88;78.87
35307;BME280;21420;52.196;21.416;2023-12-14T01:34:06;99260.83;;;2.86;78.90
35307;BME280;21420;52.196;21.416;2023-12-14T01:36:32;99260.02;;;2.86;78.90
35307;BME280;21420;52.196;21.416;2023-12-14T01:38:58;99254.57;;;2.85;78.89
35307;BME280;21420;52.196;21.416;2023-12-14T01:41:26;99254.92;;;2.84;78.93
35307;BME280;21420;52.196;21.416;2023-12-14T01:43:52;99258.05;;;2.83;78.94
35307;BME280;21420;52.196;21.416;2023-12-14T01:46:18;99258.55;;;2.84;78.95
35307;BME280;21420;52.196;21.416;2023-12-14T01:48:44;99260.24;;;2.86;78.93
35307;BME280;21420;52.196;21.416;2023-12-14T01:51:10;99258.16;;;2.83;78.93
35307;BME280;21420;52.196;21.416;2023-12-14T01:53:36;99256.10;;;2.83;78.95
35307;BME280;21420;52.196;21.416;2023-12-14T01:56:02;99253.49;;;2.83;78.94
35307;BME280;21420;52.196;21.416;2023-12-14T01:58:28;99248.75;;;2.83;78.95
35307;BME280;21420;52.196;21.416;2023-12-14T02:03:30;99252.45;;;2.78;78.85
35307;BME280;21420;52.196;21.416;2023-12-14T02:05:56;99253.17;;;2.77;78.84
35307;BME280;21420;52.196;21.416;2023-12-14T02:08:24;99251.69;;;2.78;78.92
35307;BME280;21420;52.196;21.416;2023-12-14T02:10:50;99249.54;;;2.81;79.04
35307;BME280;21420;52.196;21.416;2023-12-14T02:13:17;99250.15;;;2.85;79.07
35307;BME280;21420;52.196;21.416;2023-12-14T02:15:43;99247.27;;;2.84;79.00
35307;BME280;21420;52.196;21.416;2023-12-14T02:18:09;99243.95;;;2.82;79.02
35307;BME280;21420;52.196;21.416;2023-12-14T02:20:35;99241.09;;;2.80;78.92
35307;BME280;21420;52.196;21.416;2023-12-14T02:23:01;99239.63;;;2.76;78.93
35307;BME280;21420;52.196;21.416;2023-12-14T02:25:28;99242.90;;;2.75;78.90
35307;BME280;21420;52.196;21.416;2023-12-14T02:27:54;99242.92;;;2.76;78.91
35307;BME280;21420;52.196;21.416;2023-12-14T02:30:20;99242.10;;;2.75;79.00
35307;BME280;21420;52.196;21.416;2023-12-14T02:32:46;99239.86;;;2.73;78.99
35307;BME280;21420;52.196;21.416;2023-12-14T02:35:12;99241.17;;;2.68;78.86
35307;BME280;21420;52.196;21.416;2023-12-14T02:37:38;99245.94;;;2.65;78.77
35307;BME280;21420;52.196;21.416;2023-12-14T02:40:07;99244.40;;;2.64;78.80
35307;BME280;21420;52.196;21.416;2023-12-14T02:42:34;99244.08;;;2.63;78.87
35307;BME280;21420;52.196;21.416;2023-12-14T02:45:01;99242.87;;;2.64;78.91
35307;BME280;21420;52.196;21.416;2023-12-14T02:47:28;99241.55;;;2.62;78.99
35307;BME280;21420;52.196;21.416;2023-12-14T02:49:55;99243.34;;;2.61;78.86
35307;BME280;21420;52.196;21.416;2023-12-14T02:52:22;99240.05;;;2.60;78.89
35307;BME280;21420;52.196;21.416;2023-12-14T02:54:48;99242.48;;;2.60;78.91
35307;BME280;21420;52.196;21.416;2023-12-14T02:57:14;99245.33;;;2.59;78.87
35307;BME280;21420;52.196;21.416;2023-12-14T02:59:40;99245.98;;;2.56;78.81
35307;BME280;21420;52.196;21.416;2023-12-14T03:02:06;99248.55;;;2.55;78.88
35307;BME280;21420;52.196;21.416;2023-12-14T03:04:32;99248.70;;;2.55;78.95
35307;BME280;21420;52.196;21.416;2023-12-14T03:06:59;99248.17;;;2.57;78.94
35307;BME280;21420;52.196;21.416;2023-12-14T03:09:28;99243.20;;;2.60;78.93
35307;BME280;21420;52.196;21.416;2023-12-14T03:11:55;99246.58;;;2.61;78.97
35307;BME280;21420;52.196;21.416;2023-12-14T03:14:22;99245.98;;;2.61;78.96
35307;BME280;21420;52.196;21.416;2023-12-14T03:16:54;99248.53;;;2.63;79.00
35307;BME280;21420;52.196;21.416;2023-12-14T03:19:20;99254.35;;;2.63;79.02
35307;BME280;21420;52.196;21.416;2023-12-14T03:21:46;99257.50;;;2.65;78.93
35307;BME280;21420;52.196;21.416;2023-12-14T03:24:12;99259.95;;;2.66;78.96
35307;BME280;21420;52.196;21.416;2023-12-14T03:26:39;99259.33;;;2.65;78.96
35307;BME280;21420;52.196;21.416;2023-12-14T03:29:05;99264.23;;;2.66;78.96
35307;BME280;21420;52.196;21.416;2023-12-14T03:31:31;99270.13;;;2.70;78.98
35307;BME280;21420;52.196;21.416;2023-12-14T03:33:57;99272.55;;;2.72;79.01
35307;BME280;21420;52.196;21.416;2023-12-14T03:36:23;99272.55;;;2.72;79.00
35307;BME280;21420;52.196;21.416;2023-12-14T03:38:52;99273.70;;;2.74;79.04
35307;BME280;21420;52.196;21.416;2023-12-14T03:41:18;99276.28;;;2.72;79.02
35307;BME280;21420;52.196;21.416;2023-12-14T03:43:44;99276.39;;;2.68;78.93
35307;BME280;21420;52.196;21.416;2023-12-14T03:46:10;99276.96;;;2.64;78.83
35307;BME280;21420;52.196;21.416;2023-12-14T03:48:36;99277.82;;;2.63;78.93
35307;BME280;21420;52.196;21.416;2023-12-14T03:51:03;99277.64;;;2.59;78.84
35307;BME280;21420;52.196;21.416;2023-12-14T03:53:30;99280.25;;;2.55;78.76
35307;BME280;21420;52.196;21.416;2023-12-14T03:55:57;99282.92;;;2.51;78.78
35307;BME280;21420;52.196;21.416;2023-12-14T03:58:24;99289.98;;;2.50;78.80
35307;BME280;21420;52.196;21.416;2023-12-14T04:00:50;99291.00;;;2.50;78.82
35307;BME280;21420;52.196;21.416;2023-12-14T04:03:16;99294.47;;;2.50;78.87
35307;BME280;21420;52.196;21.416;2023-12-14T04:05:42;99297.73;;;2.49;78.83
35307;BME280;21420;52.196;21.416;2023-12-14T04:08:10;99302.34;;;2.48;78.84
35307;BME280;21420;52.196;21.416;2023-12-14T04:10:36;99304.17;;;2.48;78.85
35307;BME280;21420;52.196;21.416;2023-12-14T04:13:02;99305.52;;;2.46;78.82
35307;BME280;21420;52.196;21.416;2023-12-14T04:15:28;99310.55;;;2.44;78.84
35307;BME280;21420;52.196;21.416;2023-12-14T04:17:55;99311.12;;;2.45;78.87
35307;BME280;21420;52.196;21.416;2023-12-14T04:20:24;99311.27;;;2.43;78.86
35307;BME280;21420;52.196;21.416;2023-12-14T04:22:50;99318.48;;;2.43;78.82
35307;BME280;21420;52.196;21.416;2023-12-14T04:25:16;99320.77;;;2.45;78.92
35307;BME280;21420;52.196;21.416;2023-12-14T04:27:42;99316.68;;;2.50;78.98
35307;BME280;21420;52.196;21.416;2023-12-14T04:30:08;99314.86;;;2.54;79.06
35307;BME280;21420;52.196;21.416;2023-12-14T04:32:38;99318.41;;;2.57;79.03
35307;BME280;21420;52.196;21.416;2023-12-14T04:35:05;99316.79;;;2.58;79.02
35307;BME280;21420;52.196;21.416;2023-12-14T04:37:31;99315.73;;;2.60;79.05
35307;BME280;21420;52.196;21.416;2023-12-14T04:39:58;99315.73;;;2.60;78.99
35307;BME280;21420;52.196;21.416;2023-12-14T04:42:24;99318.62;;;2.59;78.95
35307;BME280;21420;52.196;21.416;2023-12-14T04:44:50;99322.65;;;2.58;78.93
35307;BME280;21420;52.196;21.416;2023-12-14T04:47:16;99326.50;;;2.53;78.83
35307;BME280;21420;52.196;21.416;2023-12-14T04:49:42;99332.38;;;2.48;78.79
35307;BME280;21420;52.196;21.416;2023-12-14T04:52:08;99332.20;;;2.49;78.95
35307;BME280;21420;52.196;21.416;2023-12-14T04:54:34;99338.67;;;2.48;78.89
35307;BME280;21420;52.196;21.416;2023-12-14T04:57:04;99340.73;;;2.43;78.76
35307;BME280;21420;52.196;21.416;2023-12-14T04:59:30;99345.98;;;2.38;78.76
35307;BME280;21420;52.196;21.416;2023-12-14T05:01:56;99341.94;;;2.35;78.73
35307;BME280;21420;52.196;21.416;2023-12-14T05:04:22;99344.27;;;2.33;78.70
35307;BME280;21420;52.196;21.416;2023-12-14T05:06:49;99346.59;;;2.31;78.78
35307;BME280;21420;52.196;21.416;2023-12-14T05:09:15;99345.75;;;2.29;78.79
35307;BME280;21420;52.196;21.416;2023-12-14T05:11:43;99349.52;;;2.28;78.80
35307;BME280;21420;52.196;21.416;2023-12-14T05:14:09;99354.90;;;2.26;78.77
35307;BME280;21420;52.196;21.416;2023-12-14T05:16:35;99361.14;;;2.25;78.73
35307;BME280;21420;52.196;21.416;2023-12-14T05:19:01;99364.92;;;2.24;78.78
35307;BME280;21420;52.196;21.416;2023-12-14T05:21:28;99370.84;;;2.24;78.79
35307;BME280;21420;52.196;21.416;2023-12-14T05:23:54;99370.64;;;2.26;78.85
35307;BME280;21420;52.196;21.416;2023-12-14T05:26:20;99377.73;;;2.27;78.81
35307;BME280;21420;52.196;21.416;2023-12-14T05:28:46;99384.89;;;2.28;78.87
35307;BME280;21420;52.196;21.416;2023-12-14T05:31:13;99386.73;;;2.31;78.89
35307;BME280;21420;52.196;21.416;2023-12-14T05:33:39;99390.00;;;2.33;78.90
35307;BME280;21420;52.196;21.416;2023-12-14T05:36:06;99393.46;;;2.36;78.99
35307;BME280;21420;52.196;21.416;2023-12-14T05:38:38;99396.17;;;2.34;78.83
35307;BME280;21420;52.196;21.416;2023-12-14T05:41:04;99401.94;;;2.33;78.82
35307;BME280;21420;52.196;21.416;2023-12-14T05:43:31;99404.66;;;2.34;78.89
35307;BME280;21420;52.196;21.416;2023-12-14T05:45:57;99406.81;;;2.37;78.93
35307;BME280;21420;52.196;21.416;2023-12-14T05:48:23;99417.48;;;2.38;78.85
35307;BME280;21420;52.196;21.416;2023-12-14T05:50:51;99417.63;;;2.41;78.95
35307;BME280;21420;52.196;21.416;2023-12-14T05:53:17;99422.83;;;2.43;78.98
35307;BME280;21420;52.196;21.416;2023-12-14T05:55:43;99427.25;;;2.48;79.03
35307;BME280;21420;52.196;21.416;2023-12-14T05:58:09;99425.63;;;2.53;79.09
35307;BME280;21420;52.196;21.416;2023-12-14T06:00:36;99429.79;;;2.55;79.07
35307;BME280;21420;52.196;21.416;2023-12-14T06:03:02;99436.96;;;2.58;79.15
35307;BME280;21420;52.196;21.416;2023-12-14T06:05:28;99438.10;;;2.56;78.96
35307;BME280;21420;52.196;21.416;2023-12-14T06:07:55;99440.20;;;2.57;78.99
35307;BME280;21420;52.196;21.416;2023-12-14T06:10:21;99448.15;;;2.59;79.09
35307;BME280;21420;52.196;21.416;2023-12-14T06:12:47;99446.12;;;2.60;79.07
35307;BME280;21420;52.196;21.416;2023-12-14T06:15:13;99448.67;;;2.59;78.95
35307;BME280;21420;52.196;21.416;2023-12-14T06:17:39;99452.30;;;2.59;78.94
35307;BME280;21420;52.196;21.416;2023-12-14T06:20:09;99455.05;;;2.57;78.92
35307;BME280;21420;52.196;21.416;2023-12-14T06:22:36;99458.56;;;2.55;78.89
35307;BME280;21420;52.196;21.416;2023-12-14T06:25:03;99457.36;;;2.53;78.87
35307;BME280;21420;52.196;21.416;2023-12-14T06:27:29;99459.07;;;2.48;78.84
35307;BME280;21420;52.196;21.416;2023-12-14T06:29:56;99463.61;;;2.44;78.77
35307;BME280;21420;52.196;21.416;2023-12-14T06:32:22;99467.42;;;2.40;78.82
35307;BME280;21420;52.196;21.416;2023-12-14T06:34:49;99469.85;;;2.38;78.81
35307;BME280;21420;52.196;21.416;2023-12-14T06:37:16;99472.68;;;2.37;78.88
35307;BME280;21420;52.196;21.416;2023-12-14T06:39:42;99478.54;;;2.39;78.99
35307;BME280;21420;52.196;21.416;2023-12-14T06:42:08;99482.00;;;2.41;78.99
35307;BME280;21420;52.196;21.416;2023-12-14T06:44:34;99486.29;;;2.43;78.94
35307;BME280;21420;52.196;21.416;2023-12-14T06:47:03;99487.44;;;2.44;78.96
35307;BME280;21420;52.196;21.416;2023-12-14T06:49:29;99487.61;;;2.45;78.90
35307;BME280;21420;52.196;21.416;2023-12-14T06:51:55;99489.95;;;2.47;78.91
35307;BME280;21420;52.196;21.416;2023-12-14T06:54:22;99491.48;;;2.49;78.93
35307;BME280;21420;52.196;21.416;2023-12-14T06:56:48;99494.06;;;2.53;78.91
35307;BME280;21420;52.196;21.416;2023-12-14T06:59:14;99499.16;;;2.57;78.97
35307;BME280;21420;52.196;21.416;2023-12-14T07:01:40;99500.84;;;2.59;78.89
35307;BME280;21420;52.196;21.416;2023-12-14T07:04:06;99498.65;;;2.61;78.91
35307;BME280;21420;52.196;21.416;2023-12-14T07:06:33;99503.52;;;2.64;78.95
35307;BME280;21420;52.196;21.416;2023-12-14T07:09:01;99506.36;;;2.66;78.98
35307;BME280;21420;52.196;21.416;2023-12-14T07:11:27;99505.16;;;2.67;79.00
35307;BME280;21420;52.196;21.416;2023-12-14T07:13:53;99506.30;;;2.69;78.99
35307;BME280;21420;52.196;21.416;2023-12-14T07:16:20;99504.41;;;2.74;79.03
35307;BME280;21420;52.196;21.416;2023-12-14T07:18:46;99504.51;;;2.79;79.08
35307;BME280;21420;52.196;21.416;2023-12-14T07:21:13;99501.56;;;2.85;79.11
35307;BME280;21420;52.196;21.416;2023-12-14T07:23:39;99504.94;;;2.92;79.12
35307;BME280;21420;52.196;21.416;2023-12-14T07:26:05;99511.48;;;2.99;79.19
35307;BME280;21420;52.196;21.416;2023-12-14T07:28:33;99512.57;;;3.05;79.22
35307;BME280;21420;52.196;21.416;2023-12-14T07:31:00;99513.46;;;3.09;79.18
35307;BME280;21420;52.196;21.416;2023-12-14T07:33:26;99512.58;;;3.09;79.05
35307;BME280;21420;52.196;21.416;2023-12-14T07:35:52;99511.77;;;3.09;78.99
35307;BME280;21420;52.196;21.416;2023-12-14T07:38:18;99513.38;;;3.10;79.01
35307;BME280;21420;52.196;21.416;2023-12-14T07:40:44;99515.91;;;3.13;79.03
35307;BME280;21420;52.196;21.416;2023-12-14T07:43:12;99515.64;;;3.15;78.93
35307;BME280;21420;52.196;21.416;2023-12-14T07:45:38;99516.77;;;3.18;79.01
35307;BME280;21420;52.196;21.416;2023-12-14T07:48:04;99516.62;;;3.19;78.99
35307;BME280;21420;52.196;21.416;2023-12-14T07:50:31;99515.52;;;3.20;78.97
35307;BME280;21420;52.196;21.416;2023-12-14T07:52:57;99516.85;;;3.21;79.01
35307;BME280;21420;52.196;21.416;2023-12-14T07:55:23;99518.64;;;3.21;79.02
35307;BME280;21420;52.196;21.416;2023-12-14T07:57:49;99520.75;;;3.18;78.93
35307;BME280;21420;52.196;21.416;2023-12-14T08:00:16;99527.94;;;3.17;78.93
35307;BME280;21420;52.196;21.416;2023-12-14T08:02:42;99530.75;;;3.19;78.96
35307;BME280;21420;52.196;21.416;2023-12-14T08:05:08;99537.02;;;3.22;78.97
35307;BME280;21420;52.196;21.416;2023-12-14T08:07:37;99540.40;;;3.23;78.91
35307;BME280;21420;52.196;21.416;2023-12-14T08:10:04;99546.17;;;3.25;78.94
35307;BME280;21420;52.196;21.416;2023-12-14T08:12:31;99549.39;;;3.29;78.91
35307;BME280;21420;52.196;21.416;2023-12-14T08:14:59;99555.35;;;3.34;79.01
35307;BME280;21420;52.196;21.416;2023-12-14T08:17:25;99560.95;;;3.37;79.00
35307;BME280;21420;52.196;21.416;2023-12-14T08:19:52;99565.66;;;3.42;78.95
35307;BME280;21420;52.196;21.416;2023-12-14T08:22:18;99569.77;;;3.46;79.08
35307;BME280;21420;52.196;21.416;2023-12-14T08:24:48;99573.86;;;3.52;79.13
35307;BME280;21420;52.196;21.416;2023-12-14T08:27:14;99577.45;;;3.56;79.16
35307;BME280;21420;52.196;21.416;2023-12-14T08:29:40;99578.39;;;3.58;79.10
35307;BME280;21420;52.196;21.416;2023-12-14T08:32:06;99586.39;;;3.58;78.89
35307;BME280;21420;52.196;21.416;2023-12-14T08:34:32;99589.37;;;3.58;78.84
35307;BME280;21420;52.196;21.416;2023-12-14T08:37:00;99593.67;;;3.59;78.84
35307;BME280;21420;52.196;21.416;2023-12-14T08:39:27;99597.55;;;3.58;78.80
35307;BME280;21420;52.196;21.416;2023-12-14T08:41:54;99601.75;;;3.56;78.78
35307;BME280;21420;52.196;21.416;2023-12-14T08:44:20;99604.11;;;3.54;78.73
35307;BME280;21420;52.196;21.416;2023-12-14T08:46:46;99605.58;;;3.52;78.75
35307;BME280;21420;52.196;21.416;2023-12-14T08:49:13;99607.70;;;3.52;78.78
35307;BME280;21420;52.196;21.416;2023-12-14T08:51:41;99610.77;;;3.52;78.84
35307;BME280;21420;52.196;21.416;2023-12-14T08:54:07;99613.79;;;3.53;78.75
35307;BME280;21420;52.196;21.416;2023-12-14T08:56:34;99619.52;;;3.53;78.74
35307;BME280;21420;52.196;21.416;2023-12-14T08:59:01;99623.39;;;3.50;78.70
35307;BME280;21420;52.196;21.416;2023-12-14T09:01:29;99621.84;;;3.47;78.62
35307;BME280;21420;52.196;21.416;2023-12-14T09:03:56;99617.92;;;3.47;78.62
35307;BME280;21420;52.196;21.416;2023-12-14T09:06:22;99621.90;;;3.47;78.69
35307;BME280;21420;52.196;21.416;2023-12-14T09:08:48;99621.84;;;3.47;78.69
35307;BME280;21420;52.196;21.416;2023-12-14T09:11:14;99626.02;;;3.48;78.62
35307;BME280;21420;52.196;21.416;2023-12-14T09:13:41;99629.90;;;3.49;78.71
35307;BME280;21420;52.196;21.416;2023-12-14T09:16:09;99634.95;;;3.49;78.72
35307;BME280;21420;52.196;21.416;2023-12-14T09:18:36;99631.66;;;3.50;78.75
35307;BME280;21420;52.196;21.416;2023-12-14T09:21:02;99628.65;;;3.50;78.78
35307;BME280;21420;52.196;21.416;2023-12-14T09:23:30;99635.32;;;3.49;78.69
35307;BME280;21420;52.196;21.416;2023-12-14T09:25:56;99637.98;;;3.51;78.56
35307;BME280;21420;52.196;21.416;2023-12-14T09:28:22;99636.66;;;3.54;78.68
35307;BME280;21420;52.196;21.416;2023-12-14T09:30:48;99638.91;;;3.57;78.71
35307;BME280;21420;52.196;21.416;2023-12-14T09:33:14;99639.71;;;3.60;78.72
35307;BME280;21420;52.196;21.416;2023-12-14T09:35:41;99639.22;;;3.63;78.66
35307;BME280;21420;52.196;21.416;2023-12-14T09:38:08;99645.54;;;3.68;78.71
35307;BME280;21420;52.196;21.416;2023-12-14T09:40:34;99647.66;;;3.72;78.74
35307;BME280;21420;52.196;21.416;2023-12-14T09:43:00;99648.45;;;3.73;78.71
35307;BME280;21420;52.196;21.416;2023-12-14T09:45:28;99648.06;;;3.74;78.70
35307;BME280;21420;52.196;21.416;2023-12-14T09:47:57;99650.98;;;3.73;78.67
35307;BME280;21420;52.196;21.416;2023-12-14T09:50:24;99649.55;;;3.73;78.47
35307;BME280;21420;52.196;21.416;2023-12-14T09:52:51;99649.90;;;3.78;78.67
35307;BME280;21420;52.196;21.416;2023-12-14T09:55:17;99648.33;;;3.81;78.70
35307;BME280;21420;52.196;21.416;2023-12-14T09:57:43;99648.85;;;3.83;78.62
35307;BME280;21420;52.196;21.416;2023-12-14T10:00:10;99647.89;;;3.90;78.65
35307;BME280;21420;52.196;21.416;2023-12-14T10:02:36;99644.94;;;3.98;78.79
35307;BME280;21420;52.196;21.416;2023-12-14T10:05:03;99645.81;;;4.06;78.81
35307;BME280;21420;52.196;21.416;2023-12-14T10:07:30;99646.80;;;4.13;78.78
35307;BME280;21420;52.196;21.416;2023-12-14T10:10:10;99650.90;;;4.16;78.80
35307;BME280;21420;52.196;21.416;2023-12-14T10:12:52;99651.92;;;4.16;78.65
35307;BME280;21420;52.196;21.416;2023-12-14T10:15:19;99654.64;;;4.16;78.70
35307;BME280;21420;52.196;21.416;2023-12-14T10:17:45;99655.05;;;4.22;78.71
35307;BME280;21420;52.196;21.416;2023-12-14T10:20:22;99652.20;;;4.27;78.78
35307;BME280;21420;52.196;21.416;2023-12-14T10:22:50;99656.80;;;4.23;78.57
35307;BME280;21420;52.196;21.416;2023-12-14T10:25:18;99660.41;;;4.17;78.45
35307;BME280;21420;52.196;21.416;2023-12-14T10:27:46;99663.92;;;4.18;78.59
35307;BME280;21420;52.196;21.416;2023-12-14T10:30:14;99665.65;;;4.20;78.65
35307;BME280;21420;52.196;21.416;2023-12-14T10:32:41;99664.50;;;4.21;78.58
35307;BME280;21420;52.196;21.416;2023-12-14T10:35:08;99668.31;;;4.16;78.49
35307;BME280;21420;52.196;21.416;2023-12-14T10:37:37;99670.25;;;4.14;78.50
35307;BME280;21420;52.196;21.416;2023-12-14T10:40:07;99668.34;;;4.13;78.46
35307;BME280;21420;52.196;21.416;2023-12-14T10:42:36;99672.05;;;4.12;78.45
35307;BME280;21420;52.196;21.416;2023-12-14T10:45:03;99676.55;;;4.12;78.59
35307;BME280;21420;52.196;21.416;2023-12-14T10:47:45;99681.09;;;4.14;78.60
35307;BME280;21420;52.196;21.416;2023-12-14T10:50:14;99683.88;;;4.11;78.53
35307;BME280;21420;52.196;21.416;2023-12-14T10:52:41;99685.66;;;4.10;78.63
35307;BME280;21420;52.196;21.416;2023-12-14T10:55:12;99686.21;;;4.09;78.57
35307;BME280;21420;52.196;21.416;2023-12-14T10:57:41;99690.78;;;4.10;78.61
35307;BME280;21420;52.196;21.416;2023-12-14T11:00:12;99693.45;;;4.12;78.74
35307;BME280;21420;52.196;21.416;2023-12-14T11:02:45;99698.21;;;4.14;78.72
35307;BME280;21420;52.196;21.416;2023-12-14T11:05:13;99700.96;;;4.15;78.70
35307;BME280;21420;52.196;21.416;2023-12-14T11:08:02;99706.56;;;4.14;78.62
35307;BME280;21420;52.196;21.416;2023-12-14T11:13:06;99708.84;;;4.07;78.50
35307;BME280;21420;52.196;21.416;2023-12-14T11:15:35;99710.13;;;4.04;78.47
35307;BME280;21420;52.196;21.416;2023-12-14T11:23:27;99715.98;;;3.94;78.37
35307;BME280;21420;52.196;21.416;2023-12-14T11:26:06;99720.14;;;3.92;78.44
35307;BME280;21420;52.196;21.416;2023-12-14T11:28:35;99719.94;;;3.91;78.48
35307;BME280;21420;52.196;21.416;2023-12-14T11:31:02;99723.39;;;3.92;78.51
35307;BME280;21420;52.196;21.416;2023-12-14T11:33:33;99729.79;;;3.90;78.57
35307;BME280;21420;52.196;21.416;2023-12-14T11:36:00;99734.70;;;3.84;78.44
35307;BME280;21420;52.196;21.416;2023-12-14T11:38:27;99738.34;;;3.77;78.30
35307;BME280;21420;52.196;21.416;2023-12-14T11:40:53;99739.60;;;3.71;78.27
35307;BME280;21420;52.196;21.416;2023-12-14T11:43:19;99743.39;;;3.64;78.10
35307;BME280;21420;52.196;21.416;2023-12-14T11:45:50;99747.02;;;3.59;78.13
35307;BME280;21420;52.196;21.416;2023-12-14T11:48:17;99745.53;;;3.58;78.14
35307;BME280;21420;52.196;21.416;2023-12-14T11:50:43;99746.42;;;3.59;78.18
35307;BME280;21420;52.196;21.416;2023-12-14T11:53:10;99746.17;;;3.62;78.31
35307;BME280;21420;52.196;21.416;2023-12-14T11:55:39;99744.77;;;3.68;78.34
35307;BME280;21420;52.196;21.416;2023-12-14T11:58:06;99748.34;;;3.72;78.48
35307;BME280;21420;52.196;21.416;2023-12-14T12:00:34;99750.52;;;3.77;78.52
35307;BME280;21420;52.196;21.416;2023-12-14T12:03:18;99756.02;;;3.80;78.52
35307;BME280;21420;52.196;21.416;2023-12-14T12:05:47;99759.48;;;3.78;78.52
35307;BME280;21420;52.196;21.416;2023-12-14T12:08:15;99765.11;;;3.76;78.40
35307;BME280;21420;52.196;21.416;2023-12-14T12:10:42;99762.63;;;3.78;78.43
35307;BME280;21420;52.196;21.416;2023-12-14T12:13:13;99764.63;;;3.81;78.41
35307;BME280;21420;52.196;21.416;2023-12-14T12:15:40;99767.86;;;3.82;78.52
35307;BME280;21420;52.196;21.416;2023-12-14T12:18:08;99772.69;;;3.84;78.51
35307;BME280;21420;52.196;21.416;2023-12-14T12:20:35;99773.72;;;3.86;78.53
35307;BME280;21420;52.196;21.416;2023-12-14T12:23:02;99775.92;;;3.86;78.49
35307;BME280;21420;52.196;21.416;2023-12-14T12:25:30;99777.63;;;3.88;78.53
35307;BME280;21420;52.196;21.416;2023-12-14T12:28:01;99778.91;;;3.86;78.37
35307;BME280;21420;52.196;21.416;2023-12-14T12:30:28;99780.10;;;3.86;78.37
35307;BME280;21420;52.196;21.416;2023-12-14T12:32:54;99782.94;;;3.87;78.40
35307;BME280;21420;52.196;21.416;2023-12-14T12:35:23;99787.13;;;3.87;78.46
35307;BME280;21420;52.196;21.416;2023-12-14T12:37:49;99788.56;;;3.88;78.30
35307;BME280;21420;52.196;21.416;2023-12-14T12:40:22;99785.96;;;3.86;78.30
35307;BME280;21420;52.196;21.416;2023-12-14T12:42:52;99790.43;;;3.80;78.28
35307;BME280;21420;52.196;21.416;2023-12-14T12:45:18;99792.05;;;3.77;78.29
35307;BME280;21420;52.196;21.416;2023-12-14T12:47:48;99793.90;;;3.75;78.21
35307;BME280;21420;52.196;21.416;2023-12-14T12:50:14;99795.84;;;3.72;78.35
35307;BME280;21420;52.196;21.416;2023-12-14T12:52:40;99798.94;;;3.69;78.32
35307;BME280;21420;52.196;21.416;2023-12-14T12:55:08;99798.88;;;3.64;78.15
35307;BME280;21420;52.196;21.416;2023-12-14T12:57:38;99804.06;;;3.60;78.09
35307;BME280;21420;52.196;21.416;2023-12-14T13:00:04;99803.67;;;3.55;78.15
35307;BME280;21420;52.196;21.416;2023-12-14T13:02:33;99808.35;;;3.49;78.09
35307;BME280;21420;52.196;21.416;2023-12-14T13:05:00;99812.41;;;3.43;77.93
35307;BME280;21420;52.196;21.416;2023-12-14T13:07:26;99812.92;;;3.42;78.07
35307;BME280;21420;52.196;21.416;2023-12-14T13:09:54;99814.46;;;3.44;78.15